createdAt,value
2018-04-29T02:19:22.092Z,7.82
2018-04-29T02:19:22.594Z,8.11
2018-04-29T02:19:23.195Z,8.11
2018-04-29T02:19:23.794Z,8.20
2018-04-29T02:21:14.385Z,9.16
2018-04-29T02:21:14.958Z,9.25
2018-04-29T02:21:15.558Z,9.16
2018-04-29T02:21:16.160Z,9.06
2018-04-29T02:21:16.767Z,9.06
2018-04-29T02:21:17.354Z,8.96
2018-04-29T02:21:17.956Z,8.96
2018-04-29T02:21:18.559Z,8.58
2018-04-29T02:21:19.154Z,8.58
2018-04-29T02:21:19.754Z,8.77
2018-04-29T02:21:20.354Z,8.77
2018-04-29T02:21:20.952Z,8.67
2018-04-29T02:21:21.553Z,8.87
2018-04-29T02:22:27.092Z,7.24
2018-04-29T02:22:27.661Z,6.96
2018-04-29T02:22:28.260Z,7.06
2018-04-29T02:22:28.864Z,6.96
2018-04-29T02:22:29.462Z,6.87
2018-04-29T02:23:23.015Z,7.43
2018-04-29T02:23:23.573Z,7.63
2018-04-29T02:23:24.172Z,7.53
2018-04-29T02:23:24.771Z,7.73
2018-04-29T02:23:25.386Z,7.63
2018-04-29T02:23:25.971Z,7.63
2018-04-29T02:23:26.572Z,7.63
2018-04-29T02:23:27.171Z,7.53
2018-04-29T02:24:23.720Z,9.53
2018-04-29T02:24:24.295Z,9.44
2018-04-29T02:24:24.895Z,9.35
2018-04-29T02:26:37.233Z,9.34
2018-04-29T02:26:37.798Z,9.44
2018-04-29T02:26:38.408Z,9.44
2018-04-29T02:26:38.992Z,9.34
2018-04-29T02:26:39.592Z,9.34
2018-04-29T02:26:40.199Z,9.44
2018-04-29T02:26:40.792Z,9.25
2018-04-29T02:26:41.392Z,9.44
2018-04-29T02:26:41.998Z,9.34
2018-04-29T02:26:42.592Z,9.35
2018-04-29T02:26:43.191Z,9.25
2018-04-29T02:26:43.792Z,9.54
2018-04-29T02:27:40.846Z,12.11
2018-04-29T02:27:41.420Z,11.83
2018-04-29T02:27:42.020Z,11.83
2018-04-29T02:28:51.092Z,11.73
2018-04-29T02:28:51.666Z,11.73
2018-04-29T02:28:52.265Z,11.93
2018-04-29T02:28:52.864Z,12.02
2018-04-29T02:28:53.465Z,11.54
2018-04-29T02:28:54.065Z,11.73
2018-04-29T02:28:54.664Z,11.54
2018-04-29T02:28:55.265Z,11.73
2018-04-29T02:28:55.867Z,11.73
2018-04-29T02:28:56.486Z,11.54
2018-04-29T02:28:57.062Z,11.54
2018-04-29T02:28:57.661Z,11.64
2018-04-29T02:28:58.262Z,11.73
2018-04-29T02:28:58.861Z,11.54
2018-04-29T02:28:59.461Z,11.54
2018-04-29T02:29:00.062Z,11.73
2018-04-29T02:29:55.603Z,12.49
2018-04-29T02:29:56.179Z,12.40
2018-04-29T02:29:56.777Z,12.40
2018-04-29T02:29:57.378Z,12.88
2018-04-29T02:29:57.976Z,12.69
2018-04-29T02:29:58.583Z,12.78
2018-04-29T02:30:52.643Z,13.83
2018-04-29T02:30:53.217Z,13.54
2018-04-29T02:30:53.819Z,13.45
2018-04-29T02:30:54.422Z,13.54
2018-04-29T02:30:55.019Z,13.45
2018-04-29T02:30:55.623Z,12.98
2018-04-29T02:30:56.219Z,12.88
2018-04-29T02:30:56.818Z,13.07
2018-04-29T02:31:51.838Z,10.78
2018-04-29T02:31:52.403Z,10.78
2018-04-29T02:31:53.005Z,10.97
2018-04-29T02:31:53.603Z,10.97
2018-04-29T02:31:54.203Z,10.59
2018-04-29T02:31:54.807Z,10.78
2018-04-29T02:31:55.409Z,10.68
2018-04-29T02:32:49.377Z,9.25
2018-04-29T02:32:49.954Z,9.25
2018-04-29T02:32:50.553Z,9.25
2018-04-29T02:32:51.153Z,9.06
2018-04-29T02:32:51.753Z,9.06
2018-04-29T02:32:52.356Z,9.25
2018-04-29T02:32:52.954Z,9.25
2018-04-29T02:33:47.442Z,7.53
2018-04-29T02:33:48.018Z,7.63
2018-04-29T02:33:48.613Z,7.44
2018-04-29T02:33:49.213Z,7.53
2018-04-29T02:33:49.814Z,7.53
2018-04-29T02:33:50.415Z,7.53
2018-04-29T02:33:51.013Z,7.53
2018-04-29T02:33:51.616Z,7.06
2018-04-29T02:34:46.116Z,8.58
2018-04-29T02:34:46.696Z,8.58
2018-04-29T02:34:47.290Z,8.30
2018-04-29T02:34:47.895Z,8.49
2018-04-29T02:34:48.490Z,8.49
2018-04-29T02:34:49.091Z,8.30
2018-04-29T02:34:49.690Z,8.39
2018-04-29T02:34:50.291Z,8.30
2018-04-29T02:35:46.842Z,11.73
2018-04-29T02:35:47.414Z,11.73
2018-04-29T02:35:48.014Z,11.83
2018-04-29T02:36:41.522Z,14.40
2018-04-29T02:36:42.097Z,14.41
2018-04-29T02:36:42.698Z,14.41
2018-04-29T02:36:43.296Z,14.40
2018-04-29T02:36:43.901Z,14.31
2018-04-29T02:36:44.499Z,14.22
2018-04-29T02:36:45.102Z,14.22
2018-04-29T02:36:45.695Z,14.50
2018-04-29T02:37:39.695Z,14.03
2018-04-29T02:37:40.264Z,14.03
2018-04-29T02:37:40.859Z,13.93
2018-04-29T02:37:41.459Z,13.93
2018-04-29T02:37:42.073Z,13.83
2018-04-29T02:37:42.662Z,13.75
2018-04-29T02:37:43.258Z,13.74
2018-04-29T02:38:36.833Z,13.07
2018-04-29T02:38:37.399Z,13.17
2018-04-29T02:38:38.000Z,12.88
2018-04-29T02:38:38.600Z,13.07
2018-04-29T02:38:39.203Z,13.45
2018-04-29T02:38:39.802Z,13.54
2018-04-29T02:38:40.400Z,13.27
2018-04-29T02:38:40.999Z,13.93
2018-04-29T02:39:36.012Z,17.08
2018-04-29T02:39:36.587Z,17.46
2018-04-29T02:39:37.188Z,17.27
2018-04-29T02:39:37.788Z,17.18
2018-04-29T02:39:38.388Z,16.89
2018-04-29T02:39:38.995Z,17.27
2018-04-29T02:39:39.589Z,17.47
2018-04-29T02:40:34.073Z,16.32
2018-04-29T02:40:34.649Z,16.42
2018-04-29T02:40:35.250Z,16.51
2018-04-29T02:40:35.849Z,16.22
2018-04-29T02:40:36.448Z,16.50
2018-04-29T02:40:37.047Z,16.41
2018-04-29T02:40:37.648Z,16.13
2018-04-29T02:40:38.249Z,16.42
2018-04-29T02:41:32.751Z,16.42
2018-04-29T02:41:33.372Z,16.22
2018-04-29T02:41:33.923Z,16.13
2018-04-29T02:41:34.523Z,16.32
2018-04-29T02:41:35.124Z,16.51
2018-04-29T02:41:35.723Z,16.32
2018-04-29T02:41:36.323Z,16.32
2018-04-29T02:41:36.921Z,16.13
2018-04-29T02:42:31.428Z,16.22
2018-04-29T02:42:32.002Z,16.22
2018-04-29T02:42:32.600Z,16.13
2018-04-29T02:42:33.199Z,16.22
2018-04-29T02:42:33.800Z,16.42
2018-04-29T02:42:34.403Z,16.13
2018-04-29T02:42:35.000Z,16.13
2018-04-29T02:42:35.600Z,16.22
2018-04-29T02:43:29.086Z,18.61
2018-04-29T02:43:29.653Z,18.80
2018-04-29T02:43:30.253Z,18.61
2018-04-29T02:43:30.853Z,18.99
2018-04-29T02:43:31.451Z,18.90
2018-04-29T02:43:32.058Z,18.52
2018-04-29T02:43:32.652Z,18.90
2018-04-29T02:43:33.252Z,18.90
2018-04-29T02:44:29.800Z,23.38
2018-04-29T02:44:30.377Z,23.58
2018-04-29T02:44:30.983Z,23.67
2018-04-29T02:45:26.018Z,22.33
2018-04-29T02:45:26.595Z,22.43
2018-04-29T02:45:27.197Z,22.53
2018-04-29T02:45:27.794Z,22.72
2018-04-29T02:45:28.392Z,22.91
2018-04-29T02:45:28.998Z,22.72
2018-04-29T02:46:23.072Z,19.38
2018-04-29T02:46:23.632Z,19.28
2018-04-29T02:46:24.231Z,19.28
2018-04-29T02:46:24.833Z,19.18
2018-04-29T02:46:25.432Z,19.18
2018-04-29T02:46:26.034Z,19.66
2018-04-29T02:46:26.636Z,19.28
2018-04-29T02:46:27.241Z,19.18
2018-04-29T02:47:22.259Z,19.57
2018-04-29T02:47:22.825Z,19.47
2018-04-29T02:47:23.418Z,19.76
2018-04-29T02:47:24.020Z,19.76
2018-04-29T02:47:24.623Z,19.76
2018-04-29T02:47:25.221Z,19.85
2018-04-29T02:47:25.820Z,19.95
2018-04-29T02:48:24.318Z,22.91
2018-04-29T02:48:24.874Z,23.10
2018-04-29T02:48:25.477Z,22.81
2018-04-29T02:48:26.073Z,23.19
2018-04-29T02:48:26.674Z,23.38
2018-04-29T02:48:27.282Z,23.77
2018-04-29T02:48:27.878Z,23.19
2018-04-29T02:48:28.473Z,23.10
2018-04-29T02:48:29.073Z,23.67
2018-04-29T02:48:29.671Z,23.67
2018-04-29T02:48:30.272Z,23.48
2018-04-29T02:48:30.872Z,23.58
2018-04-29T02:48:31.475Z,23.29
2018-04-29T02:48:32.072Z,23.96
2018-04-29T02:48:32.754Z,24.05
2018-04-29T02:48:33.270Z,24.24
2018-04-29T02:48:33.868Z,24.44
2018-04-29T02:49:27.892Z,24.53
2018-04-29T02:49:28.469Z,24.82
2018-04-29T02:49:29.064Z,24.91
2018-04-29T02:49:29.667Z,24.72
2018-04-29T02:49:30.265Z,24.63
2018-04-29T02:49:30.866Z,24.63
2018-04-29T02:49:31.464Z,24.44
2018-04-29T02:49:32.066Z,24.44
2018-04-29T02:50:27.131Z,26.15
2018-04-29T02:50:27.653Z,25.96
2018-04-29T02:50:28.255Z,25.96
2018-04-29T02:50:28.852Z,26.15
2018-04-29T02:50:29.452Z,26.06
2018-04-29T02:50:30.056Z,25.96
2018-04-29T02:50:30.651Z,26.15
2018-04-29T02:51:25.156Z,24.15
2018-04-29T02:51:25.715Z,24.05
2018-04-29T02:51:26.315Z,23.96
2018-04-29T02:51:26.912Z,24.15
2018-04-29T02:51:27.514Z,24.15
2018-04-29T02:51:28.115Z,24.05
2018-04-29T02:51:28.712Z,24.15
2018-04-29T02:51:29.312Z,24.15
2018-04-29T02:52:24.380Z,26.54
2018-04-29T02:52:24.902Z,26.44
2018-04-29T02:52:25.508Z,26.44
2018-04-29T02:52:26.101Z,26.54
2018-04-29T02:52:26.701Z,26.44
2018-04-29T02:52:27.304Z,26.44
2018-04-29T02:52:27.901Z,26.54
2018-04-29T02:53:21.490Z,24.63
2018-04-29T02:53:22.042Z,24.53
2018-04-29T02:53:22.643Z,24.91
2018-04-29T02:53:23.243Z,25.01
2018-04-29T02:53:23.844Z,24.82
2018-04-29T02:53:24.443Z,25.01
2018-04-29T02:53:25.042Z,25.01
2018-04-29T02:53:25.640Z,25.10
2018-04-29T02:54:19.715Z,29.78
2018-04-29T02:54:20.231Z,29.69
2018-04-29T02:54:20.818Z,29.59
2018-04-29T02:54:21.419Z,29.69
2018-04-29T02:54:22.016Z,29.69
2018-04-29T02:54:22.615Z,29.59
2018-04-29T02:54:23.216Z,29.59
2018-04-29T02:55:16.777Z,26.92
2018-04-29T02:55:17.350Z,27.11
2018-04-29T02:55:17.945Z,27.01
2018-04-29T02:55:18.553Z,27.11
2018-04-29T02:55:19.143Z,27.11
2018-04-29T02:55:19.747Z,26.92
2018-04-29T02:55:20.344Z,27.11
2018-04-29T02:55:20.944Z,26.92
2018-04-29T02:56:14.424Z,24.72
2018-04-29T02:56:15.001Z,24.53
2018-04-29T02:56:15.597Z,24.72
2018-04-29T02:56:16.197Z,24.82
2018-04-29T02:56:16.797Z,24.72
2018-04-29T02:56:17.408Z,24.72
2018-04-29T02:56:17.996Z,24.53
2018-04-29T02:56:18.596Z,24.53
2018-04-29T02:57:12.081Z,27.11
2018-04-29T02:57:12.649Z,26.92
2018-04-29T02:57:13.253Z,27.01
2018-04-29T02:57:13.847Z,27.11
2018-04-29T02:57:14.449Z,27.11
2018-04-29T02:57:15.053Z,27.11
2018-04-29T02:57:15.648Z,27.20
2018-04-29T02:57:16.248Z,27.11
2018-04-29T02:58:09.727Z,26.34
2018-04-29T02:58:10.301Z,26.15
2018-04-29T02:58:10.899Z,26.25
2018-04-29T02:58:11.499Z,26.15
2018-04-29T02:58:12.105Z,25.87
2018-04-29T02:58:12.703Z,25.87
2018-04-29T02:58:13.299Z,25.96
2018-04-29T02:58:13.904Z,25.96
2018-04-29T02:59:07.891Z,25.49
2018-04-29T02:59:08.464Z,25.49
2018-04-29T02:59:09.062Z,26.06
2018-04-29T02:59:09.663Z,25.77
2018-04-29T02:59:10.262Z,25.77
2018-04-29T02:59:10.865Z,26.06
2018-04-29T02:59:11.466Z,25.77
2018-04-29T03:00:05.030Z,28.06
2018-04-29T03:00:05.605Z,28.35
2018-04-29T03:00:06.204Z,28.54
2018-04-29T03:00:06.805Z,28.25
2018-04-29T03:00:07.410Z,28.35
2018-04-29T03:00:08.004Z,28.44
2018-04-29T03:00:08.604Z,28.16
2018-04-29T03:00:09.204Z,27.87
2018-04-29T03:01:02.791Z,25.68
2018-04-29T03:01:03.359Z,25.58
2018-04-29T03:01:03.959Z,25.58
2018-04-29T03:01:04.559Z,25.39
2018-04-29T03:01:05.158Z,25.49
2018-04-29T03:01:05.764Z,25.49
2018-04-29T03:01:06.361Z,25.49
2018-04-29T03:01:06.958Z,25.49
2018-04-29T03:02:00.444Z,24.72
2018-04-29T03:02:01.009Z,25.01
2018-04-29T03:02:01.609Z,24.63
2018-04-29T03:02:02.209Z,24.91
2018-04-29T03:02:02.808Z,24.82
2018-04-29T03:02:03.415Z,24.63
2018-04-29T03:02:04.009Z,24.72
2018-04-29T03:02:04.612Z,24.63
2018-04-29T03:02:58.093Z,25.01
2018-04-29T03:02:58.661Z,24.91
2018-04-29T03:02:59.263Z,24.63
2018-04-29T03:02:59.862Z,24.91
2018-04-29T03:03:00.464Z,24.91
2018-04-29T03:03:01.067Z,24.91
2018-04-29T03:03:01.665Z,25.01
2018-04-29T03:03:02.271Z,25.10
2018-04-29T03:03:56.774Z,25.87
2018-04-29T03:03:57.335Z,25.77
2018-04-29T03:03:57.936Z,25.29
2018-04-29T03:03:58.535Z,25.20
2018-04-29T03:03:59.136Z,25.68
2018-04-29T03:03:59.737Z,25.29
2018-04-29T03:04:00.335Z,25.29
2018-04-29T03:04:00.935Z,25.20
2018-04-29T03:04:54.931Z,24.82
2018-04-29T03:04:55.499Z,24.82
2018-04-29T03:04:56.099Z,24.82
2018-04-29T03:04:56.699Z,24.82
2018-04-29T03:04:57.301Z,24.53
2018-04-29T03:04:57.902Z,24.72
2018-04-29T03:04:58.499Z,24.63
2018-04-29T03:05:52.073Z,25.29
2018-04-29T03:05:52.640Z,25.39
2018-04-29T03:05:53.241Z,25.39
2018-04-29T03:05:53.844Z,25.29
2018-04-29T03:05:54.447Z,25.39
2018-04-29T03:05:55.042Z,25.29
2018-04-29T03:05:55.641Z,25.77
2018-04-29T03:05:56.241Z,25.20
2018-04-29T03:06:50.756Z,29.78
2018-04-29T03:06:51.314Z,29.69
2018-04-29T03:06:51.914Z,29.97
2018-04-29T03:06:52.515Z,30.16
2018-04-29T03:06:53.115Z,29.69
2018-04-29T03:06:53.722Z,29.59
2018-04-29T03:06:54.313Z,29.59
2018-04-29T03:06:54.916Z,29.78
2018-04-29T03:07:48.398Z,28.35
2018-04-29T03:07:48.967Z,27.97
2018-04-29T03:07:49.567Z,27.97
2018-04-29T03:07:50.168Z,27.87
2018-04-29T03:07:50.769Z,27.49
2018-04-29T03:07:51.369Z,27.87
2018-04-29T03:07:51.968Z,27.97
2018-04-29T03:07:52.569Z,27.68
2018-04-29T03:08:47.079Z,26.92
2018-04-29T03:08:47.648Z,26.92
2018-04-29T03:08:48.243Z,27.20
2018-04-29T03:08:48.843Z,27.20
2018-04-29T03:08:49.443Z,27.30
2018-04-29T03:08:50.044Z,27.49
2018-04-29T03:08:50.643Z,27.49
2018-04-29T03:08:51.242Z,27.30
2018-04-29T03:09:44.726Z,27.49
2018-04-29T03:09:45.295Z,27.49
2018-04-29T03:09:45.896Z,27.97
2018-04-29T03:09:46.500Z,27.97
2018-04-29T03:09:47.094Z,27.78
2018-04-29T03:09:47.696Z,27.97
2018-04-29T03:09:48.299Z,28.06
2018-04-29T03:09:48.895Z,27.87
2018-04-29T03:10:42.374Z,28.16
2018-04-29T03:10:42.948Z,28.54
2018-04-29T03:10:43.547Z,28.73
2018-04-29T03:10:44.148Z,28.64
2018-04-29T03:10:44.763Z,28.64
2018-04-29T03:10:45.351Z,28.64
2018-04-29T03:10:45.947Z,28.92
2018-04-29T03:10:46.555Z,29.02
2018-04-29T03:11:43.101Z,29.88
2018-04-29T03:11:43.680Z,30.07
2018-04-29T03:11:44.268Z,29.88
2018-04-29T03:30:55.102Z,21.75
2018-04-29T03:30:55.676Z,21.57
2018-04-29T03:30:56.275Z,21.37
2018-04-29T03:30:56.876Z,21.66
2018-04-29T03:30:57.479Z,21.38
2018-04-29T03:30:58.075Z,21.28
2018-04-29T03:30:58.676Z,21.37
2018-04-29T03:30:59.276Z,21.37
2018-04-29T03:32:00.331Z,21.28
2018-04-29T03:32:00.905Z,21.18
2018-04-29T03:32:01.511Z,21.37
2018-04-29T03:32:02.105Z,21.28
2018-04-29T03:32:02.718Z,21.56
2018-04-29T03:32:03.304Z,21.28
2018-04-29T03:32:03.904Z,21.28
2018-04-29T03:32:04.504Z,21.28
2018-04-29T03:32:05.102Z,21.48
2018-04-29T03:32:05.702Z,21.56
2018-04-29T03:32:06.304Z,21.66
2018-04-29T03:32:06.903Z,21.77
2018-04-29T03:33:04.470Z,20.79
2018-04-29T03:33:05.009Z,20.89
2018-04-29T03:33:05.607Z,20.89
2018-04-29T03:33:59.630Z,21.08
2018-04-29T03:34:00.229Z,20.51
2018-04-29T03:34:00.846Z,21.08
2018-04-29T03:34:01.405Z,20.79
2018-04-29T03:34:02.001Z,20.99
2018-04-29T03:34:02.610Z,20.70
2018-04-29T03:34:03.200Z,20.51
2018-04-29T03:34:57.279Z,19.18
2018-04-29T03:34:57.777Z,19.08
2018-04-29T03:34:58.372Z,19.08
2018-04-29T03:34:58.966Z,18.32
2018-04-29T03:34:59.602Z,19.08
2018-04-29T03:35:00.165Z,19.08
2018-04-29T03:35:00.764Z,19.18
2018-04-29T03:36:41.432Z,18.03
2018-04-29T03:36:41.998Z,18.13
2018-04-29T03:36:42.597Z,17.93
2018-04-29T03:36:43.216Z,18.22
2018-04-29T03:36:43.820Z,18.03
2018-04-29T03:36:44.394Z,18.03
2018-04-29T03:36:45.002Z,18.22
2018-04-29T03:36:45.616Z,18.03
2018-04-29T03:36:46.199Z,18.03
2018-04-29T03:36:46.817Z,18.03
2018-04-29T03:36:47.400Z,18.03
2018-04-29T03:36:47.995Z,18.03
2018-04-29T03:36:48.603Z,18.13
2018-04-29T03:37:46.179Z,17.17
2018-04-29T03:37:46.719Z,17.08
2018-04-29T03:37:47.341Z,17.08
2018-04-29T03:38:40.824Z,15.07
2018-04-29T03:38:41.397Z,14.88
2018-04-29T03:38:41.995Z,14.50
2018-04-29T03:38:42.596Z,14.59
2018-04-29T03:38:43.196Z,14.59
2018-04-29T03:38:43.797Z,14.59
2018-04-29T03:38:44.397Z,14.69
2018-04-29T03:38:44.995Z,14.79
2018-04-29T03:39:38.475Z,12.98
2018-04-29T03:39:39.048Z,12.78
2018-04-29T03:39:39.649Z,12.69
2018-04-29T03:39:40.251Z,12.98
2018-04-29T03:39:40.849Z,12.88
2018-04-29T03:39:41.451Z,12.88
2018-04-29T03:39:42.049Z,12.88
2018-04-29T03:39:42.649Z,13.07
2018-04-29T03:40:36.127Z,15.64
2018-04-29T03:40:36.701Z,15.55
2018-04-29T03:40:37.303Z,15.64
2018-04-29T03:40:37.901Z,15.45
2018-04-29T03:40:38.500Z,15.55
2018-04-29T03:40:39.101Z,15.64
2018-04-29T03:40:39.702Z,15.45
2018-04-29T03:40:40.299Z,15.55
2018-04-29T03:41:38.796Z,15.26
2018-04-29T03:41:39.369Z,15.26
2018-04-29T03:41:39.972Z,15.07
2018-04-29T03:41:40.567Z,15.17
2018-04-29T03:41:41.171Z,15.64
2018-04-29T03:41:41.770Z,15.74
2018-04-29T03:41:42.368Z,15.64
2018-04-29T03:41:42.969Z,15.74
2018-04-29T03:41:43.574Z,15.74
2018-04-29T03:41:44.168Z,15.45
2018-04-29T03:41:44.767Z,15.55
2018-04-29T03:41:45.366Z,15.64
2018-04-29T03:41:45.970Z,15.36
2018-04-29T03:41:46.566Z,15.55
2018-04-29T03:41:47.177Z,15.55
2018-04-29T03:41:47.765Z,15.64
2018-04-29T03:41:48.368Z,15.84
2018-04-29T03:42:42.397Z,18.13
2018-04-29T03:42:42.960Z,18.03
2018-04-29T03:42:43.559Z,18.41
2018-04-29T03:42:44.161Z,18.03
2018-04-29T03:42:44.760Z,17.93
2018-04-29T03:42:45.363Z,18.13
2018-04-29T03:42:45.960Z,18.03
2018-04-29T03:42:46.564Z,17.74
2018-04-29T03:43:40.038Z,16.03
2018-04-29T03:43:40.621Z,16.12
2018-04-29T03:43:41.219Z,16.12
2018-04-29T03:43:41.811Z,16.03
2018-04-29T03:43:42.421Z,15.64
2018-04-29T03:43:43.025Z,15.93
2018-04-29T03:43:43.612Z,15.93
2018-04-29T03:43:44.211Z,16.03
2018-04-29T03:44:38.206Z,15.64
2018-04-29T03:44:38.775Z,15.55
2018-04-29T03:44:39.375Z,15.64
2018-04-29T03:44:39.974Z,15.55
2018-04-29T03:44:40.575Z,15.64
2018-04-29T03:44:41.177Z,15.64
2018-04-29T03:44:41.774Z,15.64
2018-04-29T03:45:35.343Z,14.79
2018-04-29T03:45:35.917Z,14.69
2018-04-29T03:45:36.516Z,14.79
2018-04-29T03:45:37.116Z,14.59
2018-04-29T03:45:37.718Z,14.88
2018-04-29T03:45:38.317Z,14.59
2018-04-29T03:45:38.916Z,14.98
2018-04-29T03:45:39.515Z,14.88
2018-04-29T03:46:33.510Z,15.26
2018-04-29T03:46:34.080Z,15.27
2018-04-29T03:46:34.682Z,15.45
2018-04-29T03:46:35.288Z,15.46
2018-04-29T03:46:35.877Z,15.17
2018-04-29T03:46:36.480Z,15.26
2018-04-29T03:46:37.077Z,15.46
2018-04-29T03:47:30.653Z,14.03
2018-04-29T03:47:31.218Z,14.22
2018-04-29T03:47:31.819Z,13.64
2018-04-29T03:47:32.420Z,14.12
2018-04-29T03:47:33.019Z,14.31
2018-04-29T03:47:33.622Z,13.75
2018-04-29T03:47:34.220Z,14.31
2018-04-29T03:47:34.821Z,13.64
2018-04-29T03:48:28.305Z,14.88
2018-04-29T03:48:28.876Z,15.17
2018-04-29T03:48:29.477Z,14.79
2018-04-29T03:48:30.075Z,14.88
2018-04-29T03:48:30.690Z,14.79
2018-04-29T03:48:31.278Z,14.69
2018-04-29T03:48:31.877Z,14.98
2018-04-29T03:48:32.475Z,15.17
2018-04-29T03:49:29.028Z,16.69
2018-04-29T03:49:29.607Z,16.60
2018-04-29T03:49:30.203Z,16.69
2018-04-29T03:50:34.360Z,15.75
2018-04-29T03:50:34.931Z,15.56
2018-04-29T03:50:35.529Z,15.75
2018-04-29T03:50:36.132Z,15.84
2018-04-29T03:50:36.732Z,15.84
2018-04-29T03:50:37.329Z,15.75
2018-04-29T03:50:37.930Z,15.84
2018-04-29T03:51:31.910Z,14.79
2018-04-29T03:51:32.480Z,14.70
2018-04-29T03:51:33.080Z,14.79
2018-04-29T03:51:33.678Z,14.61
2018-04-29T03:51:34.279Z,14.70
2018-04-29T03:51:34.880Z,14.32
2018-04-29T03:51:35.482Z,14.70
2018-04-29T03:52:29.055Z,14.51
2018-04-29T03:52:29.620Z,14.22
2018-04-29T03:52:30.220Z,14.51
2018-04-29T03:52:30.822Z,14.61
2018-04-29T03:52:31.420Z,14.22
2018-04-29T03:52:32.022Z,14.41
2018-04-29T03:52:32.621Z,14.70
2018-04-29T03:52:33.219Z,14.79
2018-04-29T03:53:28.236Z,16.22
2018-04-29T03:53:28.808Z,16.13
2018-04-29T03:53:29.408Z,16.03
2018-04-29T03:53:30.010Z,15.94
2018-04-29T03:53:30.609Z,15.94
2018-04-29T03:53:31.209Z,16.13
2018-04-29T03:53:31.807Z,16.13
2018-04-29T03:54:25.795Z,15.17
2018-04-29T03:54:26.361Z,15.27
2018-04-29T03:54:26.956Z,15.37
2018-04-29T03:54:27.555Z,15.37
2018-04-29T03:54:28.158Z,15.37
2018-04-29T03:54:28.757Z,15.27
2018-04-29T03:54:29.357Z,15.17
2018-04-29T03:55:25.896Z,14.89
2018-04-29T03:55:26.467Z,14.61
2018-04-29T03:55:27.067Z,14.41
2018-04-29T03:56:20.579Z,15.84
2018-04-29T03:56:21.150Z,16.13
2018-04-29T03:56:21.751Z,16.22
2018-04-29T03:56:22.351Z,16.03
2018-04-29T03:56:22.955Z,16.13
2018-04-29T03:56:23.548Z,16.22
2018-04-29T03:56:24.147Z,16.32
2018-04-29T03:56:24.747Z,16.42
2018-04-29T03:57:18.228Z,23.00
2018-04-29T03:57:18.799Z,23.10
2018-04-29T03:57:19.402Z,23.19
2018-04-29T03:57:20.002Z,23.00
2018-04-29T03:57:20.601Z,22.91
2018-04-29T03:57:21.202Z,23.19
2018-04-29T03:57:21.801Z,23.19
2018-04-29T03:57:22.399Z,23.10
2018-04-29T03:58:15.880Z,22.81
2018-04-29T03:58:16.453Z,22.72
2018-04-29T03:58:17.054Z,22.81
2018-04-29T03:58:17.654Z,22.72
2018-04-29T03:58:18.255Z,22.53
2018-04-29T03:58:18.853Z,22.53
2018-04-29T03:58:19.452Z,22.72
2018-04-29T03:58:20.051Z,22.62
2018-04-29T03:59:14.056Z,23.29
2018-04-29T03:59:14.615Z,23.19
2018-04-29T03:59:15.215Z,23.10
2018-04-29T03:59:15.817Z,23.00
2018-04-29T03:59:16.414Z,22.91
2018-04-29T03:59:17.014Z,23.10
2018-04-29T03:59:17.615Z,23.29
2018-04-29T04:00:12.617Z,23.48
2018-04-29T04:00:13.198Z,23.38
2018-04-29T04:00:13.789Z,23.38
2018-04-29T04:00:14.387Z,23.48
2018-04-29T04:00:14.985Z,23.48
2018-04-29T04:00:15.587Z,23.38
2018-04-29T04:00:16.186Z,23.10
2018-04-29T04:01:14.671Z,21.86
2018-04-29T04:01:15.243Z,21.86
2018-04-29T04:01:15.849Z,21.77
2018-04-29T04:01:16.447Z,21.67
2018-04-29T04:01:17.043Z,21.77
2018-04-29T04:01:17.645Z,21.77
2018-04-29T04:01:18.243Z,21.86
2018-04-29T04:01:18.844Z,21.77
2018-04-29T04:01:19.443Z,21.57
2018-04-29T04:01:20.042Z,21.77
2018-04-29T04:01:20.645Z,21.86
2018-04-29T04:01:21.245Z,21.77
2018-04-29T04:01:21.844Z,21.77
2018-04-29T04:01:22.441Z,21.77
2018-04-29T04:01:23.048Z,21.77
2018-04-29T04:01:23.642Z,21.77
2018-04-29T04:01:24.244Z,21.57
2018-04-29T04:02:25.743Z,23.10
2018-04-29T04:02:26.315Z,23.48
2018-04-29T04:02:26.929Z,23.19
2018-04-29T04:02:27.527Z,23.48
2018-04-29T04:02:28.115Z,22.91
2018-04-29T04:02:28.765Z,23.10
2018-04-29T04:02:29.387Z,23.10
2018-04-29T04:02:29.960Z,23.00
2018-04-29T04:02:30.520Z,22.81
2018-04-29T04:02:31.140Z,22.91
2018-04-29T04:02:31.774Z,23.10
2018-04-29T04:02:32.620Z,23.38
2018-04-29T04:03:26.366Z,22.24
2018-04-29T04:03:26.931Z,22.33
2018-04-29T04:03:27.531Z,22.53
2018-04-29T04:03:28.134Z,22.33
2018-04-29T04:03:28.730Z,22.05
2018-04-29T04:03:29.334Z,22.05
2018-04-29T04:03:29.931Z,22.05
2018-04-29T04:04:23.514Z,20.33
2018-04-29T04:04:24.068Z,20.33
2018-04-29T04:04:24.670Z,20.23
2018-04-29T04:04:25.279Z,20.43
2018-04-29T04:04:25.872Z,20.52
2018-04-29T04:04:26.476Z,20.23
2018-04-29T04:04:27.070Z,20.62
2018-04-29T04:04:27.671Z,20.23
2018-04-29T04:05:21.667Z,22.53
2018-04-29T04:05:22.282Z,22.53
2018-04-29T04:05:22.834Z,22.91
2018-04-29T04:05:23.435Z,22.91
2018-04-29T04:05:24.035Z,23.19
2018-04-29T04:05:24.634Z,23.19
2018-04-29T04:05:25.233Z,23.19
2018-04-29T04:06:19.725Z,26.54
2018-04-29T04:06:20.296Z,26.54
2018-04-29T04:06:20.895Z,26.92
2018-04-29T04:06:21.494Z,26.84
2018-04-29T04:06:22.094Z,26.73
2018-04-29T04:06:22.704Z,26.73
2018-04-29T04:06:23.293Z,26.92
2018-04-29T04:06:23.894Z,26.92
2018-04-29T04:07:17.387Z,23.48
2018-04-29T04:07:17.948Z,23.59
2018-04-29T04:07:18.551Z,23.48
2018-04-29T04:07:19.150Z,23.48
2018-04-29T04:07:19.747Z,23.48
2018-04-29T04:07:20.348Z,23.49
2018-04-29T04:07:20.956Z,23.77
2018-04-29T04:07:21.548Z,23.49
2018-04-29T04:08:18.099Z,24.72
2018-04-29T04:08:18.671Z,24.91
2018-04-29T04:08:19.271Z,24.93
2018-04-29T04:09:13.301Z,29.03
2018-04-29T04:09:13.866Z,29.13
2018-04-29T04:09:14.464Z,29.03
2018-04-29T04:09:15.063Z,29.32
2018-04-29T04:09:15.665Z,29.22
2018-04-29T04:09:16.268Z,29.22
2018-04-29T04:09:16.865Z,29.40
2018-04-29T04:10:10.434Z,29.03
2018-04-29T04:10:11.005Z,29.61
2018-04-29T04:10:11.605Z,29.70
2018-04-29T04:10:12.207Z,29.61
2018-04-29T04:10:12.806Z,29.89
2018-04-29T04:10:13.415Z,29.51
2018-04-29T04:10:14.005Z,29.61
2018-04-29T04:10:14.603Z,29.80
2018-04-29T04:11:08.089Z,27.41
2018-04-29T04:11:08.667Z,27.41
2018-04-29T04:11:09.258Z,27.79
2018-04-29T04:11:09.859Z,27.50
2018-04-29T04:11:10.462Z,27.41
2018-04-29T04:11:11.061Z,27.31
2018-04-29T04:11:11.659Z,27.41
2018-04-29T04:11:12.259Z,27.22
2018-04-29T04:12:10.655Z,26.07
2018-04-29T04:12:11.261Z,25.88
2018-04-29T04:12:11.822Z,25.88
2018-04-29T04:13:24.388Z,25.50
2018-04-29T04:13:24.954Z,25.31
2018-04-29T04:13:25.553Z,25.50
2018-04-29T04:13:26.155Z,25.21
2018-04-29T04:13:26.752Z,25.31
2018-04-29T04:13:27.358Z,25.40
2018-04-29T04:13:27.952Z,25.40
2018-04-29T04:13:28.550Z,25.31
2018-04-29T04:13:29.152Z,25.31
2018-04-29T04:13:29.751Z,24.93
2018-04-29T04:14:23.891Z,25.31
2018-04-29T04:14:24.447Z,25.31
2018-04-29T04:14:25.049Z,25.40
2018-04-29T04:14:25.651Z,25.50
2018-04-29T04:14:26.247Z,25.31
2018-04-29T04:14:26.849Z,25.40
2018-04-29T04:14:27.447Z,25.50
2018-04-29T04:14:28.047Z,25.02
2018-04-29T04:15:26.544Z,27.12
2018-04-29T04:15:27.117Z,26.64
2018-04-29T04:15:27.720Z,26.84
2018-04-29T04:15:28.317Z,26.93
2018-04-29T04:15:28.915Z,26.84
2018-04-29T04:15:29.519Z,27.22
2018-04-29T04:15:30.115Z,27.22
2018-04-29T04:15:30.716Z,26.84
2018-04-29T04:15:31.315Z,27.12
2018-04-29T04:15:31.915Z,27.31
2018-04-29T04:15:32.519Z,27.41
2018-04-29T04:15:33.116Z,27.41
2018-04-29T04:15:33.720Z,27.60
2018-04-29T04:15:34.314Z,27.41
2018-04-29T04:15:34.914Z,27.60
2018-04-29T04:15:35.514Z,27.41
2018-04-29T04:15:36.113Z,27.70
2018-04-29T04:45:25.125Z,26.84
2018-04-29T04:45:25.683Z,26.93
2018-04-29T04:45:26.282Z,26.84
2018-04-29T04:48:02.456Z,22.54
2018-04-29T04:48:02.961Z,22.24
2018-04-29T04:48:03.563Z,22.25
2018-04-29T04:48:04.159Z,22.24
2018-04-29T04:48:04.783Z,22.25
2018-04-29T04:49:34.329Z,23.00
2018-04-29T04:49:34.834Z,23.00
2018-04-29T04:49:35.432Z,23.00
2018-04-29T04:49:36.032Z,22.82
2018-04-29T04:49:36.632Z,22.91
2018-04-29T04:49:37.290Z,23.30
2018-04-29T04:49:37.831Z,23.02
2018-04-29T04:49:38.431Z,23.10
2018-04-29T04:49:39.033Z,23.10
2018-04-29T04:49:39.634Z,23.29
2018-04-29T04:49:40.256Z,23.38
2018-04-29T04:49:40.835Z,23.29